createdAt,value
2018-02-14T00:00:36.682Z,-2.62
2018-02-14T00:01:36.611Z,-2.70
2018-02-14T00:02:36.578Z,-2.76
2018-02-14T00:03:36.552Z,-2.68
2018-02-14T00:04:36.513Z,-2.75
2018-02-14T00:05:36.540Z,-2.75
2018-02-14T00:06:36.442Z,-2.79
2018-02-14T00:07:36.412Z,-2.81
2018-02-14T00:08:36.376Z,-2.79
2018-02-14T00:09:36.353Z,-2.82
2018-02-14T00:10:36.342Z,-2.79
2018-02-14T00:11:36.284Z,-2.75
2018-02-14T00:12:36.253Z,-2.79
2018-02-14T00:13:36.211Z,-2.82
2018-02-14T00:14:36.180Z,-2.88
2018-02-14T00:15:36.171Z,-2.73
2018-02-14T00:16:36.109Z,-2.79
2018-02-14T00:17:36.079Z,-2.75
2018-02-14T00:18:36.050Z,-2.82
2018-02-14T00:19:36.017Z,-2.82
2018-02-14T00:20:36.004Z,-2.86
2018-02-14T00:21:35.945Z,-2.79
2018-02-14T00:22:35.913Z,-2.82
2018-02-14T00:23:35.880Z,-2.88
2018-02-14T00:24:35.868Z,-2.82
2018-02-14T00:25:35.848Z,-2.90
2018-02-14T00:26:35.780Z,-2.82
2018-02-14T00:27:35.749Z,-2.93
2018-02-14T00:28:35.708Z,-2.90
2018-02-14T00:29:35.676Z,-2.88
2018-02-14T00:30:35.668Z,-2.90
2018-02-14T00:31:35.611Z,-2.96
2018-02-14T00:32:35.582Z,-2.96
2018-02-14T00:33:35.559Z,-3.04
2018-02-14T00:34:35.521Z,-2.96
2018-02-14T00:35:35.499Z,-2.91
2018-02-14T00:36:35.451Z,-2.96
2018-02-14T00:37:35.418Z,-3.03
2018-02-14T00:38:35.384Z,-3.00
2018-02-14T00:39:35.351Z,-3.11
2018-02-14T00:40:35.335Z,-3.01
2018-02-14T00:41:35.276Z,-3.01
2018-02-14T00:42:35.243Z,-3.00
2018-02-14T00:43:35.210Z,-3.03
2018-02-14T00:44:35.173Z,-2.99
2018-02-14T00:45:35.168Z,-3.07
2018-02-14T00:46:35.110Z,-3.00
2018-02-14T00:47:35.079Z,-3.00
2018-02-14T00:48:35.041Z,-3.04
2018-02-14T00:49:35.005Z,-2.97
2018-02-14T00:50:35.006Z,-3.03
2018-02-14T00:51:34.949Z,-3.07
2018-02-14T00:52:34.906Z,-3.11
2018-02-14T00:53:34.872Z,-3.00
2018-02-14T00:54:34.837Z,-3.11
2018-02-14T00:55:34.838Z,-3.12
2018-02-14T00:56:34.768Z,-3.14
2018-02-14T00:57:34.743Z,-3.12
2018-02-14T00:58:34.703Z,-3.12
2018-02-14T00:59:34.672Z,-3.12
2018-02-14T01:00:34.673Z,-3.12
2018-02-14T01:01:34.613Z,-3.15
2018-02-14T01:02:34.566Z,-3.14
2018-02-14T01:03:34.542Z,-3.14
2018-02-14T01:04:34.506Z,-3.17
2018-02-14T01:05:34.504Z,-3.12
2018-02-14T01:06:34.439Z,-3.21
2018-02-14T01:07:34.400Z,-3.22
2018-02-14T01:08:34.372Z,-3.22
2018-02-14T01:09:34.337Z,-3.30
2018-02-14T01:10:34.330Z,-3.28
2018-02-14T01:11:34.272Z,-3.30
2018-02-14T01:12:34.237Z,-3.25
2018-02-14T01:13:34.203Z,-3.19
2018-02-14T01:14:34.172Z,-3.18
2018-02-14T01:15:34.164Z,-3.15
2018-02-14T01:16:34.112Z,-3.19
2018-02-14T01:17:34.076Z,-3.18
2018-02-14T01:18:34.035Z,-3.21
2018-02-14T01:19:34.001Z,-3.12
2018-02-14T01:20:33.987Z,-3.11
2018-02-14T01:21:33.940Z,-3.17
2018-02-14T01:22:33.904Z,-3.22
2018-02-14T01:23:33.862Z,-3.18
2018-02-14T01:24:33.843Z,-3.22
2018-02-14T01:25:33.847Z,-3.12
2018-02-14T01:26:33.787Z,-3.28
2018-02-14T01:27:33.726Z,-3.14
2018-02-14T01:28:33.700Z,-3.22
2018-02-14T01:29:33.660Z,-3.25
2018-02-14T01:30:33.667Z,-3.19
2018-02-14T01:31:33.603Z,-3.21
2018-02-14T01:32:33.569Z,-3.21
2018-02-14T01:33:33.530Z,-3.24
2018-02-14T01:34:33.493Z,-3.22
2018-02-14T01:35:33.489Z,-3.22
2018-02-14T01:36:33.429Z,-3.21
2018-02-14T01:37:33.402Z,-3.22
2018-02-14T01:38:33.361Z,-3.28
2018-02-14T01:39:33.323Z,-3.18
2018-02-14T01:40:33.318Z,-3.25
2018-02-14T01:41:33.257Z,-3.36
2018-02-14T01:42:33.224Z,-3.25
2018-02-14T01:43:33.193Z,-3.24
2018-02-14T01:44:33.157Z,-3.28
2018-02-14T01:45:33.151Z,-3.24
2018-02-14T01:46:33.089Z,-3.32
2018-02-14T01:47:33.052Z,-3.33
2018-02-14T01:48:33.016Z,-3.32
2018-02-14T01:49:32.987Z,-3.33
2018-02-14T01:50:33.320Z,-3.36
2018-02-14T01:51:32.931Z,-3.38
2018-02-14T01:52:32.901Z,-3.33
2018-02-14T01:53:32.847Z,-3.36
2018-02-14T01:54:32.816Z,-3.36
2018-02-14T01:55:32.808Z,-3.33
2018-02-14T01:56:32.754Z,-3.36
2018-02-14T01:57:32.729Z,-3.38
2018-02-14T01:58:32.695Z,-3.42
2018-02-14T01:59:32.645Z,-3.38
2018-02-14T02:00:32.643Z,-3.39
2018-02-14T02:01:32.583Z,-3.32
2018-02-14T02:02:32.544Z,-3.32
2018-02-14T02:03:32.513Z,-3.32
2018-02-14T02:04:32.512Z,-3.36
2018-02-14T02:05:32.478Z,-3.36
2018-02-14T02:06:32.432Z,-3.29
2018-02-14T02:07:32.387Z,-3.29
2018-02-14T02:08:32.342Z,-3.36
2018-02-14T02:09:32.310Z,-3.38
2018-02-14T02:10:32.311Z,-3.32
2018-02-14T02:11:32.241Z,-3.33
2018-02-14T02:12:32.224Z,-3.32
2018-02-14T02:13:32.173Z,-3.32
2018-02-14T02:14:32.139Z,-3.29
2018-02-14T02:15:32.139Z,-3.29
2018-02-14T02:16:32.070Z,-3.35
2018-02-14T02:17:32.036Z,-3.28
2018-02-14T02:18:32.003Z,-3.25
2018-02-14T02:19:31.970Z,-3.25
2018-02-14T02:20:31.958Z,-3.19
2018-02-14T02:21:31.903Z,-3.21
2018-02-14T02:22:31.943Z,-3.25
2018-02-14T02:23:31.842Z,-3.35
2018-02-14T02:24:31.801Z,-3.30
2018-02-14T02:25:31.798Z,-3.32
2018-02-14T02:26:31.737Z,-3.32
2018-02-14T02:27:31.699Z,-3.38
2018-02-14T02:28:31.665Z,-3.35
2018-02-14T02:29:31.639Z,-3.32
2018-02-14T02:30:31.623Z,-3.32
2018-02-14T02:31:31.565Z,-3.35
2018-02-14T02:32:31.530Z,-3.30
2018-02-14T02:33:31.494Z,-3.29
2018-02-14T02:34:31.460Z,-3.35
2018-02-14T02:35:31.457Z,-3.38
2018-02-14T02:36:31.396Z,-3.39
2018-02-14T02:37:31.364Z,-3.43
2018-02-14T02:38:31.327Z,-3.51
2018-02-14T02:39:31.293Z,-3.39
2018-02-14T02:40:31.289Z,-3.45
2018-02-14T02:41:31.224Z,-3.47
2018-02-14T02:42:31.192Z,-3.48
2018-02-14T02:43:31.158Z,-3.50
2018-02-14T02:44:31.128Z,-3.56
2018-02-14T02:45:31.127Z,-3.63
2018-02-14T02:46:31.054Z,-3.60
2018-02-14T02:47:31.019Z,-3.53
2018-02-14T02:48:30.989Z,-3.61
2018-02-14T02:49:30.960Z,-3.61
2018-02-14T02:50:30.947Z,-3.61
2018-02-14T02:51:30.885Z,-3.58
2018-02-14T02:52:30.851Z,-3.61
2018-02-14T02:53:30.826Z,-3.61
2018-02-14T02:54:30.784Z,-3.65
2018-02-14T02:55:30.792Z,-3.63
2018-02-14T02:56:30.716Z,-3.66
2018-02-14T02:57:30.681Z,-3.69
2018-02-14T02:58:30.648Z,-3.69
2018-02-14T02:59:30.615Z,-3.69
2018-02-14T03:00:30.605Z,-3.68
2018-02-14T03:01:30.549Z,-3.76
2018-02-14T03:02:30.517Z,-3.76
2018-02-14T03:03:30.479Z,-3.76
2018-02-14T03:04:30.450Z,-3.75
2018-02-14T03:05:30.450Z,-3.77
2018-02-14T03:06:30.379Z,-3.77
2018-02-14T03:07:30.369Z,-3.75
2018-02-14T03:08:30.306Z,-3.69
2018-02-14T03:09:30.281Z,-3.90
2018-02-14T03:10:30.266Z,-3.86
2018-02-14T03:11:30.208Z,-3.83
2018-02-14T03:12:30.172Z,-3.90
2018-02-14T03:13:30.141Z,-3.82
2018-02-14T03:14:30.105Z,-3.91
2018-02-14T03:15:30.098Z,-3.86
2018-02-14T03:16:30.034Z,-3.88
2018-02-14T03:17:29.999Z,-3.88
2018-02-14T03:18:29.967Z,-3.94
2018-02-14T03:19:29.937Z,-3.96
2018-02-14T03:20:29.925Z,-3.94
2018-02-14T03:21:30.719Z,-3.94
2018-02-14T03:22:29.832Z,-3.93
2018-02-14T03:23:29.796Z,-3.93
2018-02-14T03:24:29.768Z,-3.96
2018-02-14T03:25:29.750Z,-3.97
2018-02-14T03:26:29.698Z,-3.98
2018-02-14T03:27:29.660Z,-3.91
2018-02-14T03:28:29.628Z,-3.97
2018-02-14T03:29:29.589Z,-3.94
2018-02-14T03:30:29.584Z,-3.91
2018-02-14T03:31:29.522Z,-3.91
2018-02-14T03:32:29.489Z,-3.94
2018-02-14T03:33:29.459Z,-3.94
2018-02-14T03:34:29.419Z,-3.94
2018-02-14T03:35:29.412Z,-3.96
2018-02-14T03:36:29.349Z,-3.96
2018-02-14T03:37:29.325Z,-3.94
2018-02-14T03:38:29.284Z,-4.01
2018-02-14T03:39:29.249Z,-4.00
2018-02-14T03:40:29.244Z,-3.97
2018-02-14T03:41:29.180Z,-4.00
2018-02-14T03:42:29.147Z,-3.93
2018-02-14T03:43:29.109Z,-3.98
2018-02-14T03:44:29.080Z,-4.00
2018-02-14T03:45:29.350Z,-4.00
2018-02-14T03:46:29.008Z,-3.97
2018-02-14T03:47:28.994Z,-3.98
2018-02-14T03:48:28.941Z,-4.00
2018-02-14T03:49:28.923Z,-4.00
2018-02-14T03:50:28.905Z,-4.04
2018-02-14T03:51:28.840Z,-4.05
2018-02-14T03:52:28.803Z,-3.98
2018-02-14T03:53:28.770Z,-4.00
2018-02-14T03:54:28.739Z,-3.98
2018-02-14T03:55:28.727Z,-3.97
2018-02-14T03:56:28.676Z,-3.96
2018-02-14T03:57:28.637Z,-3.97
2018-02-14T03:58:28.601Z,-3.91
2018-02-14T03:59:28.566Z,-3.94
2018-02-14T04:00:28.556Z,-3.97
2018-02-14T04:01:28.510Z,-3.97
2018-02-14T04:02:28.465Z,-4.00
2018-02-14T04:03:28.446Z,-3.91
2018-02-14T04:04:28.394Z,-3.98
2018-02-14T04:05:28.387Z,-3.93
2018-02-14T04:06:28.326Z,-3.90
2018-02-14T04:07:28.302Z,-3.94
2018-02-14T04:08:28.256Z,-3.94
2018-02-14T04:09:28.227Z,-3.87
2018-02-14T04:10:28.218Z,-3.96
2018-02-14T04:11:28.154Z,-3.97
2018-02-14T04:12:28.124Z,-3.90
2018-02-14T04:13:28.096Z,-3.90
2018-02-14T04:14:28.055Z,-3.91
2018-02-14T04:15:28.043Z,-3.88
2018-02-14T04:16:27.988Z,-3.91
2018-02-14T04:17:27.949Z,-3.93
2018-02-14T04:18:27.924Z,-3.88
2018-02-14T04:19:27.887Z,-3.88
2018-02-14T04:20:27.890Z,-3.90
2018-02-14T04:21:27.823Z,-3.90
2018-02-14T04:22:27.782Z,-3.94
2018-02-14T04:23:27.747Z,-3.94
2018-02-14T04:24:27.706Z,-3.93
2018-02-14T04:25:27.705Z,-3.94
2018-02-14T04:26:27.658Z,-3.98
2018-02-14T04:27:27.651Z,-3.98
2018-02-14T04:28:27.592Z,-3.96
2018-02-14T04:29:27.542Z,-3.97
2018-02-14T04:30:27.533Z,-4.04
2018-02-14T04:31:27.471Z,-3.98
2018-02-14T04:32:27.437Z,-4.14
2018-02-14T04:33:27.403Z,-4.09
2018-02-14T04:34:27.369Z,-4.11
2018-02-14T04:35:27.360Z,-4.05
2018-02-14T04:36:27.299Z,-4.09
2018-02-14T04:37:27.264Z,-4.08
2018-02-14T04:38:27.234Z,-4.12
2018-02-14T04:39:27.197Z,-4.11
2018-02-14T04:40:27.233Z,-4.08
2018-02-14T04:41:27.129Z,-4.09
2018-02-14T04:42:27.100Z,-4.06
2018-02-14T04:43:27.064Z,-4.14
2018-02-14T04:44:27.025Z,-4.05
2018-02-14T04:45:27.015Z,-4.06
2018-02-14T04:46:26.959Z,-4.08
2018-02-14T04:47:26.925Z,-4.12
2018-02-14T04:48:26.893Z,-4.15
2018-02-14T04:49:26.856Z,-4.12
2018-02-14T04:50:26.846Z,-4.15
2018-02-14T04:51:26.784Z,-4.15
2018-02-14T04:52:26.751Z,-4.04
2018-02-14T04:53:26.736Z,-4.09
2018-02-14T04:54:26.684Z,-4.14
2018-02-14T04:55:26.676Z,-4.06
2018-02-14T04:56:26.617Z,-4.14
2018-02-14T04:57:26.585Z,-4.04
2018-02-14T04:58:26.548Z,-4.06
2018-02-14T04:59:26.519Z,-4.06
2018-02-14T05:00:27.307Z,-4.01
2018-02-14T05:01:26.446Z,-4.01
2018-02-14T05:02:26.408Z,-4.15
2018-02-14T05:03:26.374Z,-4.06
2018-02-14T05:04:26.340Z,-4.04
2018-02-14T05:05:26.333Z,-3.97
2018-02-14T05:06:26.271Z,-4.05
2018-02-14T05:07:26.235Z,-4.04
2018-02-14T05:08:26.202Z,-4.06
2018-02-14T05:09:26.168Z,-4.09
2018-02-14T05:10:26.168Z,-4.00
2018-02-14T05:11:26.104Z,-4.01
2018-02-14T05:12:26.063Z,-4.04
2018-02-14T05:13:26.032Z,-4.04
2018-02-14T05:14:26.001Z,-4.00
2018-02-14T05:15:25.989Z,-4.00
2018-02-14T05:16:25.927Z,-4.01
2018-02-14T05:17:25.895Z,-4.01
2018-02-14T05:18:25.862Z,-4.05
2018-02-14T05:19:25.827Z,-3.97
2018-02-14T05:20:25.817Z,-3.96
2018-02-14T05:21:25.764Z,-3.94
2018-02-14T05:22:25.726Z,-3.97
2018-02-14T05:23:25.687Z,-3.96
2018-02-14T05:24:25.653Z,-3.96
2018-02-14T05:25:25.644Z,-3.93
2018-02-14T05:26:25.588Z,-3.91
2018-02-14T05:27:25.558Z,-3.93
2018-02-14T05:28:25.518Z,-3.97
2018-02-14T05:29:25.483Z,-3.90
2018-02-14T05:30:25.476Z,-3.88
2018-02-14T05:31:25.418Z,-3.94
2018-02-14T05:32:25.385Z,-3.94
2018-02-14T05:33:25.345Z,-3.94
2018-02-14T05:34:25.314Z,-3.96
2018-02-14T05:35:25.310Z,-3.86
2018-02-14T05:36:25.242Z,-3.80
2018-02-14T05:37:25.214Z,-3.72
2018-02-14T05:38:25.176Z,-3.77
2018-02-14T05:39:25.157Z,-3.86
2018-02-14T05:40:25.801Z,-3.86
2018-02-14T05:41:25.076Z,-3.86
2018-02-14T05:42:25.055Z,-3.77
2018-02-14T05:43:25.007Z,-3.87
2018-02-14T05:44:24.968Z,-3.86
2018-02-14T05:45:24.978Z,-3.87
2018-02-14T05:46:24.905Z,-3.94
2018-02-14T05:47:24.867Z,-3.86
2018-02-14T05:48:24.850Z,-3.82
2018-02-14T05:49:24.802Z,-3.94
2018-02-14T05:50:24.791Z,-3.93
2018-02-14T05:51:24.731Z,-3.97
2018-02-14T05:52:24.695Z,-3.93
2018-02-14T05:53:24.666Z,-3.91
2018-02-14T05:54:24.628Z,-3.93
2018-02-14T05:55:24.629Z,-3.94
2018-02-14T05:56:24.560Z,-3.90
2018-02-14T05:57:24.529Z,-3.94
2018-02-14T05:58:24.498Z,-3.94
2018-02-14T05:59:24.458Z,-4.01
2018-02-14T06:00:24.470Z,-4.00
2018-02-14T06:01:24.390Z,-4.08
2018-02-14T06:02:24.401Z,-4.04
2018-02-14T06:03:24.328Z,-4.09
2018-02-14T06:04:24.296Z,-4.12
2018-02-14T06:05:24.285Z,-4.06
2018-02-14T06:06:24.223Z,-4.05
2018-02-14T06:07:24.185Z,-4.11
2018-02-14T06:08:24.148Z,-4.12
2018-02-14T06:09:24.114Z,-4.09
2018-02-14T06:10:24.115Z,-4.11
2018-02-14T06:11:24.044Z,-4.09
2018-02-14T06:12:24.015Z,-4.15
2018-02-14T06:13:23.976Z,-4.14
2018-02-14T06:14:23.943Z,-4.08
2018-02-14T06:15:23.940Z,-4.08
2018-02-14T06:16:23.912Z,-4.14
2018-02-14T06:17:23.849Z,-4.06
2018-02-14T06:18:23.810Z,-4.06
2018-02-14T06:19:23.769Z,-4.11
2018-02-14T06:20:23.771Z,-4.09
2018-02-14T06:21:23.700Z,-4.04
2018-02-14T06:22:23.668Z,-4.09
2018-02-14T06:23:23.633Z,-4.05
2018-02-14T06:24:23.601Z,-4.05
2018-02-14T06:25:23.591Z,-4.01
2018-02-14T06:26:23.535Z,-4.06
2018-02-14T06:27:23.500Z,-4.06
2018-02-14T06:28:23.507Z,-4.11
2018-02-14T06:29:23.433Z,-4.12
2018-02-14T06:30:23.435Z,-4.06
2018-02-14T06:31:23.364Z,-4.05
2018-02-14T06:32:23.330Z,-4.12
2018-02-14T06:33:23.291Z,-4.11
2018-02-14T06:34:23.338Z,-4.09
2018-02-14T06:35:23.251Z,-4.12
2018-02-14T06:36:23.190Z,-4.14
2018-02-14T06:37:23.158Z,-4.15
2018-02-14T06:38:23.133Z,-4.15
2018-02-14T06:39:23.089Z,-4.12
2018-02-14T06:40:23.082Z,-4.15
2018-02-14T06:41:23.026Z,-4.11
2018-02-14T06:42:22.991Z,-4.14
2018-02-14T06:43:22.951Z,-4.11
2018-02-14T06:44:22.918Z,-4.16
2018-02-14T06:45:22.907Z,-4.16
2018-02-14T06:46:22.845Z,-4.15
2018-02-14T06:47:22.813Z,-4.12
2018-02-14T06:48:22.778Z,-4.12
2018-02-14T06:49:22.746Z,-4.11
2018-02-14T06:50:22.733Z,-4.11
2018-02-14T06:51:22.679Z,-4.16
2018-02-14T06:52:22.653Z,-4.09
2018-02-14T06:53:22.611Z,-4.04
2018-02-14T06:54:22.573Z,-4.14
2018-02-14T06:55:22.566Z,-4.00
2018-02-14T06:56:22.502Z,-3.97
2018-02-14T06:57:22.474Z,-3.96
2018-02-14T06:58:22.441Z,-3.96
2018-02-14T06:59:22.410Z,-3.90
2018-02-14T07:00:22.394Z,-3.97
2018-02-14T07:01:22.337Z,-3.88
2018-02-14T07:02:22.303Z,-3.86
2018-02-14T07:03:22.263Z,-3.79
2018-02-14T07:04:22.227Z,-3.88
2018-02-14T07:05:22.224Z,-3.79
2018-02-14T07:06:22.160Z,-3.87
2018-02-14T07:07:22.128Z,-3.72
2018-02-14T07:08:22.091Z,-3.80
2018-02-14T07:09:22.060Z,-3.76
2018-02-14T07:10:22.049Z,-3.76
2018-02-14T07:11:21.990Z,-3.79
2018-02-14T07:12:21.958Z,-3.76
2018-02-14T07:13:21.922Z,-3.72
2018-02-14T07:14:21.887Z,-3.66
2018-02-14T07:15:21.884Z,-3.69
2018-02-14T07:16:21.824Z,-3.71
2018-02-14T07:17:21.788Z,-3.65
2018-02-14T07:18:21.754Z,-3.58
2018-02-14T07:19:21.719Z,-3.65
2018-02-14T07:20:21.712Z,-3.61
2018-02-14T07:21:21.649Z,-3.60
2018-02-14T07:22:21.625Z,-3.58
2018-02-14T07:23:21.583Z,-3.51
2018-02-14T07:24:21.546Z,-3.45
2018-02-14T07:25:21.552Z,-3.42
2018-02-14T07:26:21.480Z,-3.36
2018-02-14T07:27:21.447Z,-3.35
2018-02-14T07:28:21.412Z,-3.28
2018-02-14T07:29:21.378Z,-3.15
2018-02-14T07:30:21.383Z,-3.09
2018-02-14T07:31:21.320Z,-3.07
2018-02-14T07:32:21.287Z,-3.07
2018-02-14T07:33:21.242Z,-2.96
2018-02-14T07:34:21.212Z,-2.90
2018-02-14T07:35:21.202Z,-2.83
2018-02-14T07:36:21.147Z,-2.78
2018-02-14T07:37:21.124Z,-2.65
2018-02-14T07:38:21.075Z,-2.53
2018-02-14T07:39:21.044Z,-2.53
2018-02-14T07:40:21.042Z,-2.49
2018-02-14T07:41:20.979Z,-2.43
2018-02-14T07:42:20.946Z,-2.25
2018-02-14T07:43:20.909Z,-2.17
2018-02-14T07:44:20.877Z,-2.10
2018-02-14T07:45:20.869Z,-2.02
2018-02-14T07:46:20.813Z,-1.99
2018-02-14T07:47:20.772Z,-1.99
2018-02-14T07:48:20.745Z,-1.82
2018-02-14T07:49:20.721Z,-1.78
2018-02-14T07:50:20.702Z,-1.67
2018-02-14T07:51:20.642Z,-1.58
2018-02-14T07:52:20.612Z,-1.46
2018-02-14T07:53:20.573Z,-1.35
2018-02-14T07:54:20.543Z,-1.24
2018-02-14T07:55:20.539Z,-1.21
2018-02-14T07:56:20.478Z,-0.95
2018-02-14T07:57:20.446Z,-0.87
2018-02-14T07:58:20.414Z,-0.80
2018-02-14T07:59:20.433Z,-0.72
2018-02-14T08:00:20.380Z,-0.59
2018-02-14T08:01:20.321Z,-0.49
2018-02-14T08:02:20.289Z,-0.22
2018-02-14T08:03:20.263Z,-0.33
2018-02-14T08:04:20.223Z,-0.16
2018-02-14T08:05:20.215Z,-0.07
2018-02-14T08:06:20.159Z,-0.04
2018-02-14T08:07:20.123Z,-0.04
2018-02-14T08:08:20.090Z,0.13
2018-02-14T08:09:20.067Z,0.17
2018-02-14T08:10:20.058Z,0.38
2018-02-14T08:11:20.004Z,0.47
2018-02-14T08:12:19.969Z,0.66
2018-02-14T08:13:19.938Z,0.67
2018-02-14T08:14:19.911Z,0.79
2018-02-14T08:15:19.902Z,0.97
2018-02-14T08:16:19.840Z,1.03
2018-02-14T08:17:19.810Z,1.21
2018-02-14T08:18:19.794Z,1.36
2018-02-14T08:19:19.748Z,1.54
2018-02-14T08:20:19.754Z,1.60
2018-02-14T08:21:19.693Z,1.66
2018-02-14T08:22:19.662Z,1.86
2018-02-14T08:23:19.641Z,1.89
2018-02-14T08:24:19.603Z,2.06
2018-02-14T08:25:19.609Z,2.18
2018-02-14T08:26:19.549Z,2.20
2018-02-14T08:27:19.514Z,2.26
2018-02-14T08:28:19.483Z,2.45
2018-02-14T08:29:19.455Z,2.47
2018-02-14T08:30:19.457Z,2.63
2018-02-14T08:31:19.401Z,2.72
2018-02-14T08:32:19.375Z,2.72
2018-02-14T08:33:19.354Z,2.77
2018-02-14T08:34:19.359Z,2.95
2018-02-14T08:35:19.322Z,3.11
2018-02-14T08:36:19.268Z,3.20
2018-02-14T08:37:19.249Z,3.26
2018-02-14T08:38:19.220Z,3.57
2018-02-14T08:39:19.194Z,3.63
2018-02-14T08:40:19.193Z,3.82
2018-02-14T08:41:19.157Z,4.24
2018-02-14T08:42:19.116Z,4.60
2018-02-14T08:43:19.124Z,5.05
2018-02-14T08:44:19.072Z,5.33
2018-02-14T08:45:19.065Z,5.72
2018-02-14T08:46:19.020Z,6.20
2018-02-14T08:47:18.993Z,6.54
2018-02-14T08:48:18.968Z,7.09
2018-02-14T08:49:18.947Z,7.34
2018-02-14T08:50:18.951Z,7.80
2018-02-14T08:51:18.919Z,8.06
2018-02-14T08:52:18.875Z,8.57
2018-02-14T08:53:18.851Z,8.65
2018-02-14T08:54:18.826Z,8.79
2018-02-14T08:55:18.828Z,9.08
2018-02-14T08:56:18.785Z,9.32
2018-02-14T08:57:18.767Z,9.59
2018-02-14T08:58:18.771Z,9.67
2018-02-14T08:59:18.718Z,10.03
2018-02-14T09:00:18.723Z,10.17
2018-02-14T09:01:18.685Z,10.20
2018-02-14T09:02:18.651Z,10.18
2018-02-14T09:03:18.639Z,10.21
2018-02-14T09:04:18.611Z,10.26
2018-02-14T09:05:18.625Z,10.51
2018-02-14T09:06:18.566Z,10.46
2018-02-14T09:07:18.540Z,10.52
2018-02-14T09:08:18.516Z,10.70
2018-02-14T09:09:18.499Z,10.87
2018-02-14T09:10:18.506Z,10.55
2018-02-14T09:11:18.465Z,10.69
2018-02-14T09:12:18.439Z,10.66
2018-02-14T09:13:18.417Z,10.70
2018-02-14T09:14:18.418Z,10.94
2018-02-14T09:15:18.403Z,11.16
2018-02-14T09:16:18.362Z,11.31
2018-02-14T09:17:18.338Z,11.52
2018-02-14T09:18:18.315Z,11.46
2018-02-14T09:19:18.295Z,11.49
2018-02-14T09:20:18.327Z,11.51
2018-02-14T09:21:18.256Z,11.48
2018-02-14T09:22:18.236Z,11.45
2018-02-14T09:23:18.226Z,11.52
2018-02-14T09:24:18.202Z,11.38
2018-02-14T09:25:18.206Z,11.33
2018-02-14T09:26:18.156Z,11.13
2018-02-14T09:27:18.159Z,11.20
2018-02-14T09:28:18.138Z,11.21
2018-02-14T09:29:18.102Z,11.34
2018-02-14T09:30:18.110Z,10.94
2018-02-14T09:31:18.082Z,11.26
2018-02-14T09:32:18.035Z,11.67
2018-02-14T09:33:18.018Z,11.82
2018-02-14T09:34:18.004Z,11.86
2018-02-14T09:35:18.012Z,12.01
2018-02-14T09:36:17.959Z,11.89
2018-02-14T09:37:17.941Z,12.13
2018-02-14T09:38:17.964Z,11.98
2018-02-14T09:39:17.908Z,11.60
2018-02-14T09:40:17.915Z,11.67
2018-02-14T09:41:17.869Z,11.64
2018-02-14T09:42:17.852Z,11.60
2018-02-14T09:43:17.836Z,11.84
2018-02-14T09:44:17.838Z,11.78
2018-02-14T09:45:17.790Z,11.82
2018-02-14T09:46:17.926Z,12.01
2018-02-14T09:47:17.757Z,12.18
2018-02-14T09:48:17.906Z,12.13
2018-02-14T09:49:17.746Z,12.07
2018-02-14T09:50:17.723Z,12.19
2018-02-14T09:51:17.681Z,12.18
2018-02-14T09:52:17.673Z,12.15
2018-02-14T09:53:17.646Z,12.22
2018-02-14T09:54:17.627Z,12.26
2018-02-14T09:55:17.647Z,12.56
2018-02-14T09:56:17.592Z,12.07
2018-02-14T09:57:17.569Z,11.97
2018-02-14T09:58:17.575Z,11.88
2018-02-14T09:59:17.535Z,12.00
2018-02-14T10:00:17.517Z,12.00
2018-02-14T10:01:17.846Z,11.81
2018-02-14T10:02:17.490Z,11.98
2018-02-14T10:03:17.464Z,11.85
2018-02-14T10:04:17.444Z,12.04
2018-02-14T10:05:17.430Z,11.89
2018-02-14T10:06:17.452Z,12.10
2018-02-14T10:07:17.400Z,12.31
2018-02-14T10:08:17.389Z,12.51
2018-02-14T10:09:17.356Z,12.22
2018-02-14T10:10:17.338Z,12.37
2018-02-14T10:11:17.320Z,12.38
2018-02-14T10:12:17.330Z,12.03
2018-02-14T10:13:17.292Z,12.23
2018-02-14T10:14:17.268Z,12.23
2018-02-14T10:15:17.260Z,12.23
2018-02-14T10:16:17.232Z,12.29
2018-02-14T10:17:17.261Z,11.75
2018-02-14T10:18:17.196Z,12.04
2018-02-14T10:19:17.182Z,12.23
2018-02-14T10:20:17.160Z,12.13
2018-02-14T10:21:17.151Z,12.34
2018-02-14T10:22:17.134Z,12.48
2018-02-14T10:23:17.137Z,12.73
2018-02-14T10:24:17.091Z,12.96
2018-02-14T10:25:17.101Z,13.16
2018-02-14T10:26:17.069Z,13.02
2018-02-14T10:27:17.038Z,13.14
2018-02-14T10:28:17.023Z,12.99
2018-02-14T10:29:17.010Z,13.06
2018-02-14T10:30:17.015Z,13.17
2018-02-14T10:31:16.971Z,13.14
2018-02-14T10:32:16.967Z,13.01
2018-02-14T10:33:16.937Z,12.91
2018-02-14T10:34:16.921Z,12.91
2018-02-14T10:35:16.933Z,13.02
2018-02-14T10:36:16.898Z,13.27
2018-02-14T10:37:16.874Z,13.62
2018-02-14T10:38:16.853Z,13.73
2018-02-14T10:39:16.840Z,14.05
2018-02-14T10:40:16.892Z,13.76
2018-02-14T10:41:17.098Z,13.66
2018-02-14T10:42:16.783Z,13.60
2018-02-14T10:43:16.781Z,13.88
2018-02-14T10:44:16.759Z,14.13
2018-02-14T10:45:16.739Z,13.53
2018-02-14T10:46:16.757Z,13.58
2018-02-14T10:47:16.708Z,13.93
2018-02-14T10:48:16.690Z,13.73
2018-02-14T10:49:16.725Z,13.90
2018-02-14T10:50:16.688Z,14.08
2018-02-14T10:51:16.651Z,14.30
2018-02-14T10:52:16.632Z,14.26
2018-02-14T10:53:16.645Z,14.44
2018-02-14T10:54:16.604Z,14.46
2018-02-14T10:55:16.608Z,14.16
2018-02-14T10:56:16.587Z,14.02
2018-02-14T10:57:16.561Z,13.86
2018-02-14T10:58:16.590Z,13.90
2018-02-14T10:59:16.599Z,13.81
2018-02-14T11:00:16.742Z,13.60
2018-02-14T11:01:16.500Z,13.81
2018-02-14T11:02:16.478Z,13.79
2018-02-14T11:03:16.472Z,13.88
2018-02-14T11:04:16.467Z,13.99
2018-02-14T11:05:16.459Z,14.09
2018-02-14T11:06:16.422Z,14.16
2018-02-14T11:07:16.403Z,14.51
2018-02-14T11:08:16.392Z,14.83
2018-02-14T11:09:16.376Z,15.00
2018-02-14T11:10:16.379Z,14.95
2018-02-14T11:11:16.341Z,15.01
2018-02-14T11:12:16.327Z,14.80
2018-02-14T11:13:16.317Z,14.89
2018-02-14T11:14:16.307Z,14.97
2018-02-14T11:15:16.322Z,14.75
2018-02-14T11:16:16.264Z,14.69
2018-02-14T11:17:16.254Z,14.53
2018-02-14T11:18:16.239Z,14.79
2018-02-14T11:19:16.224Z,14.86
2018-02-14T11:20:16.208Z,14.63
2018-02-14T11:21:16.235Z,14.74
2018-02-14T11:22:16.186Z,14.69
2018-02-14T11:23:16.172Z,14.69
2018-02-14T11:24:16.151Z,14.90
2018-02-14T11:25:16.142Z,14.75
2018-02-14T11:26:16.150Z,14.63
2018-02-14T11:27:16.136Z,14.67
2018-02-14T11:28:16.110Z,14.94
2018-02-14T11:29:16.242Z,14.97
2018-02-14T11:30:16.337Z,15.01
2018-02-14T11:31:16.052Z,15.26
2018-02-14T11:32:16.039Z,15.47
2018-02-14T11:33:16.042Z,15.80
2018-02-14T11:34:16.018Z,16.06
2018-02-14T11:35:16.024Z,15.71
2018-02-14T11:36:15.992Z,14.90
2018-02-14T11:37:16.041Z,14.89
2018-02-14T11:38:15.967Z,15.02
2018-02-14T11:39:15.950Z,15.37
2018-02-14T11:40:15.942Z,15.49
2018-02-14T11:41:15.920Z,15.49
2018-02-14T11:42:15.911Z,15.73
2018-02-14T11:43:15.928Z,15.92
2018-02-14T11:44:15.885Z,15.78
2018-02-14T11:45:15.912Z,15.68
2018-02-14T11:46:15.879Z,15.70
2018-02-14T11:47:15.844Z,16.00
2018-02-14T11:48:15.837Z,16.62
2018-02-14T11:49:15.824Z,16.70
2018-02-14T11:50:15.857Z,16.76
2018-02-14T11:51:15.800Z,16.49
2018-02-14T11:52:15.787Z,16.49
2018-02-14T11:53:15.782Z,16.70
2018-02-14T11:54:15.772Z,16.67
2018-02-14T11:55:15.794Z,16.88
2018-02-14T11:56:15.741Z,16.97
2018-02-14T11:57:15.731Z,17.02
2018-02-14T11:58:15.718Z,17.38
2018-02-14T11:59:15.713Z,17.69
2018-02-14T12:00:15.699Z,18.10
2018-02-14T12:01:15.719Z,18.39
2018-02-14T12:02:15.676Z,18.66
2018-02-14T12:03:15.666Z,18.82
2018-02-14T12:04:16.622Z,18.63
2018-02-14T12:05:15.677Z,18.54
2018-02-14T12:06:15.690Z,18.26
2018-02-14T12:07:15.625Z,17.15
2018-02-14T12:08:15.617Z,17.49
2018-02-14T12:09:15.638Z,17.57
2018-02-14T12:10:15.643Z,17.66
2018-02-14T12:11:15.590Z,17.69
2018-02-14T12:12:15.577Z,17.24
2018-02-14T12:13:15.567Z,17.38
2018-02-14T12:14:15.563Z,17.58
2018-02-14T12:15:15.580Z,17.69
2018-02-14T12:16:15.540Z,17.06
2018-02-14T12:17:15.531Z,16.85
2018-02-14T12:18:15.520Z,16.81
2018-02-14T12:19:15.537Z,16.74
2018-02-14T12:20:15.536Z,16.92
2018-02-14T12:21:15.523Z,16.42
2018-02-14T12:22:15.496Z,15.68
2018-02-14T12:23:15.497Z,15.18
2018-02-14T12:24:15.558Z,14.60
2018-02-14T12:25:15.534Z,14.03
2018-02-14T12:26:15.435Z,13.50
2018-02-14T12:27:15.420Z,12.94
2018-02-14T12:28:15.416Z,12.66
2018-02-14T12:29:15.401Z,12.13
2018-02-14T12:30:15.407Z,11.53
2018-02-14T12:31:15.378Z,11.20
2018-02-14T12:32:15.396Z,10.90
2018-02-14T12:33:15.331Z,10.77
2018-02-14T12:34:15.317Z,10.66
2018-02-14T12:35:15.330Z,10.67
2018-02-14T12:36:15.283Z,11.08
2018-02-14T12:37:15.272Z,12.22
2018-02-14T12:38:15.253Z,13.10
2018-02-14T12:39:15.325Z,13.78
2018-02-14T12:40:15.249Z,13.95
2018-02-14T12:41:15.202Z,13.48
2018-02-14T12:42:15.184Z,13.75
2018-02-14T12:43:15.203Z,13.40
2018-02-14T12:44:15.145Z,13.10
2018-02-14T12:45:15.130Z,12.19
2018-02-14T12:46:15.139Z,11.64
2018-02-14T12:47:15.096Z,11.21
2018-02-14T12:48:15.075Z,10.95
2018-02-14T12:49:15.091Z,10.49
2018-02-14T12:50:15.043Z,10.23
2018-02-14T12:51:15.024Z,9.96
2018-02-14T12:52:15.003Z,9.82
2018-02-14T12:53:14.982Z,9.71
2018-02-14T12:54:14.989Z,9.50